Skelton, Minnesota
Current Conditions -  °F | °C
As of 8:12 AM on Saturday 01 Nov 2014 (Local Time) from KMZH Reporting Station
Clear Clear  
Wind Chill: 21°   Ceiling: Unl
Heat Index: 21°   Visibility: 10mi
Dew Point: 18°   Wind: 3mph
Humidity: 86%   Direction: 240°WSW
Pressure: 30.41"   Gusts: NA
Location:  46.5379°N, 92.621°W
Report Text: KMZH 011312Z AUTO 24003KT 10SM CLR M06/M08 A3041 RMK AO2
Loading
Personal Weather Stations






























Interactive Weather Map
Tropical Storm Tracking
New forecast layout! Learn more

10-Day Weather Forecast

Advertisements
Track Severe Weather on mobile